Time;durP1;ratioP1;P1;durP2;ratioP2;P2;SDS_P1;SDS_P2;PMS_P1;PMS_P2;Temp;Humidity;BMP_temperature;BMP_pressure;BME280_temperature;BME280_humidity;BME280_pressure;Samples;Min_cycle;Max_cycle;Signal;HPM_P1;HPM_P2
2022/03/16 00:02:26;;;;;;;93.00;43.97;;;5.10;99.90;;;;;;4394700;32;20148;-69
2022/03/16 00:04:55;;;;;;;87.50;43.97;;;5.00;99.90;;;;;;4393863;32;20171;-69
2022/03/16 00:07:23;;;;;;;90.57;43.10;;;5.00;99.90;;;;;;4393917;32;20237;-70
2022/03/16 00:09:50;;;;;;;86.23;42.73;;;5.00;99.90;;;;;;4393371;32;20206;-69
2022/03/16 00:12:18;;;;;;;85.53;41.70;;;5.00;99.90;;;;;;4395265;32;20211;-69
2022/03/16 00:14:45;;;;;;;86.90;42.50;;;5.00;99.90;;;;;;4393398;32;20189;-70
2022/03/16 00:17:12;;;;;;;95.07;42.23;;;5.00;99.90;;;;;;4395559;32;20504;-69
2022/03/16 00:19:40;;;;;;;86.60;41.43;;;5.00;99.90;;;;;;4393009;32;20183;-69
2022/03/16 00:22:08;;;;;;;86.33;41.67;;;5.00;99.90;;;;;;4393939;32;20234;-69
2022/03/16 00:24:34;;;;;;;82.47;39.23;;;5.00;99.90;;;;;;4394234;32;20210;-69
2022/03/16 00:27:02;;;;;;;83.90;40.53;;;5.00;99.90;;;;;;4392519;32;20199;-70
2022/03/16 00:29:29;;;;;;;80.47;40.27;;;5.00;99.90;;;;;;4393684;32;20172;-69
2022/03/16 00:32:02;;;;;;;83.33;40.10;;;4.90;99.90;;;;;;4392903;32;20210;-69
2022/03/16 00:34:29;;;;;;;84.73;40.07;;;4.90;99.90;;;;;;4394016;32;20203;-69
2022/03/16 00:36:58;;;;;;;79.23;39.17;;;4.90;99.90;;;;;;4393840;32;20216;-69
2022/03/16 00:39:25;;;;;;;85.63;38.43;;;4.80;99.90;;;;;;4394680;32;20221;-69
2022/03/16 00:41:52;;;;;;;75.60;38.10;;;4.80;99.90;;;;;;4394106;32;20195;-70
2022/03/16 00:44:18;;;;;;;78.20;37.03;;;4.80;99.90;;;;;;4393878;32;20209;-70
2022/03/16 00:46:45;;;;;;;75.20;36.13;;;4.80;99.90;;;;;;4402554;32;20171;-68
2022/03/16 00:49:12;;;;;;;72.40;36.00;;;4.90;99.90;;;;;;4395200;32;20201;-69
2022/03/16 00:51:39;;;;;;;73.13;36.27;;;4.90;99.90;;;;;;4396749;32;20193;-69
2022/03/16 00:54:06;;;;;;;76.87;37.33;;;4.80;99.90;;;;;;4395017;32;20513;-70
2022/03/16 00:56:33;;;;;;;77.63;37.10;;;4.70;99.90;;;;;;4396233;32;20187;-69
2022/03/16 00:59:00;;;;;;;78.83;37.77;;;4.70;99.90;;;;;;4395665;32;20167;-70
2022/03/16 01:01:27;;;;;;;77.37;38.17;;;4.60;99.90;;;;;;4394833;32;20207;-69
2022/03/16 01:03:56;;;;;;;80.30;38.57;;;4.60;99.90;;;;;;4396262;32;20303;-69
2022/03/16 01:06:23;;;;;;;78.03;38.33;;;4.70;99.90;;;;;;4396362;32;20186;-69
2022/03/16 01:08:50;;;;;;;78.70;37.70;;;4.70;99.90;;;;;;4396743;32;20179;-69
2022/03/16 01:11:17;;;;;;;77.97;37.53;;;4.70;99.90;;;;;;4409285;32;20148;-69
2022/03/16 01:13:45;;;;;;;76.53;37.37;;;4.80;99.90;;;;;;4394521;32;20198;-70
2022/03/16 01:16:12;;;;;;;79.50;36.80;;;4.80;99.90;;;;;;4394909;32;20224;-70
2022/03/16 01:18:39;;;;;;;73.30;35.40;;;4.80;99.90;;;;;;4395216;32;20176;-69
2022/03/16 01:21:07;;;;;;;76.00;36.03;;;4.80;99.90;;;;;;4408964;32;20139;-69
2022/03/16 01:23:36;;;;;;;72.33;36.10;;;4.90;99.90;;;;;;4394887;32;20210;-69
2022/03/16 01:26:04;;;;;;;68.63;35.43;;;4.90;99.90;;;;;;4395272;32;20192;-69
2022/03/16 01:28:32;;;;;;;71.30;35.17;;;5.00;99.90;;;;;;4394434;32;20386;-70
2022/03/16 01:31:01;;;;;;;68.07;35.40;;;5.00;99.90;;;;;;4395865;32;20169;-70
2022/03/16 01:33:29;;;;;;;70.07;34.33;;;5.00;99.90;;;;;;4408794;32;20204;-69
2022/03/16 01:35:56;;;;;;;76.23;37.23;;;5.10;99.90;;;;;;4409053;32;20150;-69
2022/03/16 01:38:23;;;;;;;69.13;35.50;;;5.10;99.90;;;;;;4394286;32;20232;-70
2022/03/16 01:40:50;;;;;;;71.60;34.13;;;5.10;99.90;;;;;;4394368;32;20222;-69
2022/03/16 01:43:17;;;;;;;69.50;34.40;;;5.10;99.90;;;;;;4408644;32;20159;-69
2022/03/16 01:45:49;;;;;;;75.43;36.27;;;5.20;99.90;;;;;;4395753;32;20183;-69
2022/03/16 01:48:17;;;;;;;68.13;33.83;;;5.20;99.90;;;;;;4395600;32;20206;-69
2022/03/16 01:50:47;;;;;;;70.93;35.07;;;5.20;99.90;;;;;;4395321;32;20164;-69
2022/03/16 01:53:15;;;;;;;71.87;35.03;;;5.30;99.90;;;;;;4394825;32;20176;-70
2022/03/16 01:55:43;;;;;;;72.37;35.80;;;5.30;99.90;;;;;;4394872;32;20178;-70
2022/03/16 01:58:10;;;;;;;73.03;33.73;;;5.20;99.90;;;;;;4394950;32;20206;-70
2022/03/16 02:00:38;;;;;;;72.00;34.87;;;5.20;99.90;;;;;;4408702;32;20151;-69
2022/03/16 02:03:07;;;;;;;71.43;34.57;;;5.30;99.90;;;;;;4395150;32;20230;-69
2022/03/16 02:05:35;;;;;;;67.77;34.33;;;5.30;99.90;;;;;;4394080;32;20194;-69
2022/03/16 02:08:04;;;;;;;70.60;34.60;;;5.30;99.90;;;;;;4394278;32;20210;-69
2022/03/16 02:10:32;;;;;;;65.53;33.23;;;5.30;99.90;;;;;;4381860;32;20239;-69
2022/03/16 02:12:59;;;;;;;67.87;32.97;;;5.40;99.90;;;;;;4394686;32;20209;-69
2022/03/16 02:15:27;;;;;;;66.43;33.60;;;5.40;99.90;;;;;;4395429;32;20211;-69
2022/03/16 02:17:57;;;;;;;68.20;33.77;;;5.40;99.90;;;;;;4394663;32;20525;-69
2022/03/16 02:20:27;;;;;;;65.63;32.80;;;5.40;99.90;;;;;;4394657;32;20183;-70
2022/03/16 02:23:02;;;;;;;65.57;32.93;;;5.50;99.90;;;;;;4396244;32;20180;-69
2022/03/16 02:25:30;;;;;;;66.03;32.93;;;5.50;99.90;;;;;;4397803;32;20179;-69
2022/03/16 02:27:58;;;;;;;64.97;33.00;;;5.50;99.90;;;;;;4398841;32;20184;-69
2022/03/16 02:30:27;;;;;;;61.07;30.30;;;5.50;99.90;;;;;;4397723;32;20203;-69
2022/03/16 02:32:54;;;;;;;63.83;30.73;;;5.40;99.90;;;;;;4398352;32;20437;-69
2022/03/16 02:35:22;;;;;;;59.60;30.57;;;5.30;99.90;;;;;;4397039;32;20544;-69
2022/03/16 02:37:50;;;;;;;55.00;28.33;;;5.30;99.90;;;;;;4397840;32;20175;-69
2022/03/16 02:40:20;;;;;;;57.57;28.70;;;5.30;99.90;;;;;;4411131;32;20143;-69
2022/03/16 02:42:48;;;;;;;55.83;29.00;;;5.30;99.90;;;;;;4398120;32;20221;-69
2022/03/16 02:45:15;;;;;;;57.13;29.10;;;5.40;99.90;;;;;;4397544;32;20229;-69
2022/03/16 02:47:42;;;;;;;55.10;27.60;;;5.40;99.90;;;;;;4394418;32;20172;-70
2022/03/16 02:50:12;;;;;;;54.30;28.00;;;5.40;99.90;;;;;;4396485;32;20145;-69
2022/03/16 02:52:40;;;;;;;55.63;28.13;;;5.40;99.90;;;;;;4394668;32;20183;-69
2022/03/16 02:55:07;;;;;;;53.30;27.90;;;5.40;99.90;;;;;;4394938;32;20175;-69
2022/03/16 02:57:34;;;;;;;54.60;28.07;;;5.40;99.90;;;;;;4394524;32;20184;-70
2022/03/16 03:00:04;;;;;;;49.53;26.63;;;5.40;99.90;;;;;;4394541;32;20209;-69
2022/03/16 03:02:31;;;;;;;49.40;26.27;;;5.40;99.90;;;;;;4394640;32;20180;-69
2022/03/16 03:04:58;;;;;;;50.00;26.47;;;5.30;99.90;;;;;;4394374;32;20524;-69
2022/03/16 03:07:25;;;;;;;49.20;25.40;;;5.30;99.90;;;;;;4394117;32;20176;-69
2022/03/16 03:09:52;;;;;;;51.63;26.40;;;5.30;99.90;;;;;;4396171;32;20144;-69
2022/03/16 03:12:19;;;;;;;48.27;25.97;;;5.30;99.90;;;;;;4394764;32;20207;-69
2022/03/16 03:14:46;;;;;;;47.50;26.70;;;5.30;99.90;;;;;;4394583;32;20221;-69
2022/03/16 03:17:12;;;;;;;46.23;25.20;;;5.30;99.90;;;;;;4394317;32;20175;-69
2022/03/16 03:19:39;;;;;;;52.23;25.77;;;5.40;99.90;;;;;;4395978;32;20450;-69
2022/03/16 03:22:06;;;;;;;44.97;25.07;;;5.40;99.90;;;;;;4393795;32;20235;-69
2022/03/16 03:24:33;;;;;;;46.93;25.47;;;5.40;99.90;;;;;;4394447;32;20244;-69
2022/03/16 03:27:00;;;;;;;46.73;25.13;;;5.30;99.90;;;;;;4393773;32;20189;-69
2022/03/16 03:29:27;;;;;;;47.50;26.13;;;5.40;99.90;;;;;;4393861;32;20183;-70
2022/03/16 03:31:54;;;;;;;46.70;25.13;;;5.40;99.90;;;;;;4393760;32;20202;-70
2022/03/16 03:34:21;;;;;;;45.83;24.40;;;5.40;99.90;;;;;;4396166;32;20166;-69
2022/03/16 03:36:48;;;;;;;46.63;25.00;;;5.40;99.90;;;;;;4395414;32;20421;-69
2022/03/16 03:39:15;;;;;;;44.83;24.30;;;5.40;99.90;;;;;;4394170;32;20230;-69
2022/03/16 03:41:43;;;;;;;44.67;24.60;;;5.50;99.90;;;;;;4394610;32;20205;-69
2022/03/16 03:44:10;;;;;;;47.73;24.57;;;5.50;99.90;;;;;;4394513;32;20238;-69
2022/03/16 03:46:36;;;;;;;46.37;25.33;;;5.50;99.90;;;;;;4402955;32;20549;-69
2022/03/16 03:49:04;;;;;;;42.23;24.30;;;5.40;99.90;;;;;;4396071;32;20215;-69
2022/03/16 03:51:31;;;;;;;45.80;24.23;;;5.50;99.90;;;;;;4410865;32;20143;-70
2022/03/16 03:53:58;;;;;;;42.73;23.00;;;5.50;99.90;;;;;;4396573;32;20225;-69
2022/03/16 03:56:24;;;;;;;44.10;24.00;;;5.40;99.90;;;;;;4396039;32;20211;-69
2022/03/16 03:58:51;;;;;;;46.23;25.23;;;5.50;99.90;;;;;;4396564;32;20567;-70
2022/03/16 04:01:18;;;;;;;45.47;24.87;;;5.40;99.90;;;;;;4410427;32;20151;-69
2022/03/16 04:03:46;;;;;;;49.27;25.90;;;5.30;99.90;;;;;;4410344;32;20210;-69
2022/03/16 04:06:13;;;;;;;45.90;24.57;;;5.30;99.90;;;;;;4396268;32;20175;-70
2022/03/16 04:08:42;;;;;;;45.43;25.67;;;5.30;99.90;;;;;;4396920;32;20180;-70
2022/03/16 04:11:09;;;;;;;43.93;24.90;;;5.30;99.90;;;;;;4410271;32;20402;-69
2022/03/16 04:13:36;;;;;;;46.90;25.33;;;5.30;99.90;;;;;;4410131;32;20144;-69
2022/03/16 04:16:04;;;;;;;44.87;25.30;;;5.20;99.90;;;;;;4397115;32;20487;-70
2022/03/16 04:18:31;;;;;;;44.93;25.07;;;5.20;99.90;;;;;;4395961;32;20223;-70
2022/03/16 04:20:58;;;;;;;47.53;25.97;;;5.20;99.90;;;;;;4396191;32;20203;-69
2022/03/16 04:23:25;;;;;;;45.00;24.60;;;5.20;99.90;;;;;;4396235;32;20183;-70
2022/03/16 04:25:52;;;;;;;43.73;24.20;;;5.10;99.90;;;;;;4396494;32;20463;-69
2022/03/16 04:28:19;;;;;;;47.67;25.07;;;5.10;99.90;;;;;;4397209;32;20266;-69
2022/03/16 04:30:46;;;;;;;44.60;24.30;;;5.10;99.90;;;;;;4410259;32;20441;-69
2022/03/16 04:33:12;;;;;;;44.60;24.73;;;5.00;99.90;;;;;;4395551;32;20219;-69
2022/03/16 04:35:39;;;;;;;45.23;24.33;;;5.00;99.90;;;;;;4410551;32;20408;-70
2022/03/16 04:38:08;;;;;;;42.87;23.87;;;5.00;99.90;;;;;;4410123;32;20493;-69
2022/03/16 04:40:35;;;;;;;44.53;24.00;;;5.00;99.90;;;;;;4410027;32;20139;-69
2022/03/16 04:43:02;;;;;;;42.23;23.77;;;5.00;99.90;;;;;;4395646;32;20179;-69
2022/03/16 04:45:29;;;;;;;44.27;24.83;;;4.90;99.90;;;;;;4396294;32;20174;-69
2022/03/16 04:47:56;;;;;;;44.47;24.80;;;4.90;99.90;;;;;;4396804;32;20509;-69
2022/03/16 04:50:29;;;;;;;46.83;24.30;;;4.90;99.90;;;;;;4395574;32;20457;-69
2022/03/16 04:52:56;;;;;;;45.37;24.27;;;4.90;99.90;;;;;;4395023;32;20215;-69
2022/03/16 04:55:23;;;;;;;47.63;24.73;;;4.80;99.90;;;;;;4395030;32;20446;-70
2022/03/16 04:57:55;;;;;;;48.23;24.30;;;4.70;99.90;;;;;;4409291;32;20182;-69
2022/03/16 05:00:24;;;;;;;49.90;25.63;;;4.70;99.90;;;;;;4396773;32;20183;-69
2022/03/16 05:02:51;;;;;;;47.03;25.17;;;4.70;99.90;;;;;;4396630;32;20453;-69
2022/03/16 05:05:18;;;;;;;48.77;25.87;;;4.70;99.90;;;;;;4408991;32;20418;-69
2022/03/16 05:07:45;;;;;;;53.10;26.60;;;4.70;99.90;;;;;;4395730;32;20483;-70
2022/03/16 05:10:13;;;;;;;52.93;26.23;;;4.60;99.90;;;;;;4395776;32;20167;-69
2022/03/16 05:12:42;;;;;;;52.20;26.07;;;4.60;99.90;;;;;;4409354;32;20171;-70
2022/03/16 05:15:13;;;;;;;50.50;26.87;;;4.60;99.90;;;;;;4395836;32;20169;-69
2022/03/16 05:17:40;;;;;;;50.70;26.70;;;4.60;99.90;;;;;;4409165;32;20155;-70
2022/03/16 05:20:08;;;;;;;50.90;26.43;;;4.70;99.90;;;;;;4395739;32;20176;-69
2022/03/16 05:22:47;;;;;;;52.47;26.50;;;4.60;99.90;;;;;;4395950;32;20515;-69
2022/03/16 05:25:32;;;;;;;54.03;26.93;;;4.60;99.90;;;;;;4396671;32;20184;-69
2022/03/16 05:27:59;;;;;;;51.00;26.40;;;4.60;99.90;;;;;;4395049;32;20236;-69
2022/03/16 05:30:27;;;;;;;49.97;26.83;;;4.60;99.90;;;;;;4409648;32;20473;-69
2022/03/16 05:32:57;;;;;;;51.73;27.60;;;4.60;99.90;;;;;;4409086;32;20173;-69
2022/03/16 05:35:24;;;;;;;51.87;27.87;;;4.70;99.90;;;;;;4395439;32;20427;-69
2022/03/16 05:37:51;;;;;;;55.10;27.73;;;4.70;99.90;;;;;;4396190;32;20234;-69
2022/03/16 05:40:18;;;;;;;54.87;27.93;;;4.70;99.90;;;;;;4395157;32;20428;-69
2022/03/16 05:42:45;;;;;;;53.57;28.70;;;4.70;99.90;;;;;;4395381;32;20176;-69
2022/03/16 05:45:12;;;;;;;52.97;28.03;;;4.60;99.90;;;;;;4394598;32;20209;-70
2022/03/16 05:47:39;;;;;;;57.07;28.70;;;4.60;99.90;;;;;;4394643;32;20171;-69
2022/03/16 05:50:07;;;;;;;57.63;29.17;;;4.70;99.90;;;;;;4396477;32;20353;-69
2022/03/16 05:52:35;;;;;;;56.37;29.10;;;4.70;99.90;;;;;;4410635;32;20159;-69
2022/03/16 05:55:02;;;;;;;57.57;28.60;;;4.80;99.90;;;;;;4408729;32;20166;-69
2022/03/16 05:57:29;;;;;;;53.93;28.60;;;4.80;99.90;;;;;;4395619;32;20187;-69
2022/03/16 05:59:56;;;;;;;55.50;29.07;;;4.90;99.90;;;;;;4411899;32;20524;-69
2022/03/16 06:02:23;;;;;;;53.27;28.37;;;4.80;99.90;;;;;;4398091;32;20190;-69
2022/03/16 06:04:50;;;;;;;55.53;28.97;;;4.90;99.90;;;;;;4398130;32;20185;-69
2022/03/16 06:07:17;;;;;;;57.50;29.87;;;5.00;99.90;;;;;;4398260;32;20200;-69
2022/03/16 06:09:44;;;;;;;58.17;30.23;;;5.00;99.90;;;;;;4398612;32;20194;-69
2022/03/16 06:12:11;;;;;;;58.07;29.17;;;5.00;99.90;;;;;;4411822;32;20164;-69
2022/03/16 06:14:38;;;;;;;59.60;30.13;;;5.00;99.90;;;;;;4411722;32;20150;-69
2022/03/16 06:17:05;;;;;;;56.03;29.87;;;5.10;99.90;;;;;;4411720;32;20146;-69
2022/03/16 06:19:32;;;;;;;61.27;30.60;;;5.10;99.90;;;;;;4397160;32;20207;-69
2022/03/16 06:22:00;;;;;;;58.77;29.80;;;5.20;99.90;;;;;;4397635;32;20201;-69
2022/03/16 06:24:27;;;;;;;62.07;30.37;;;5.20;99.90;;;;;;4397440;32;20172;-69
2022/03/16 06:26:55;;;;;;;58.33;30.60;;;5.20;99.90;;;;;;4397744;32;20251;-69
2022/03/16 06:29:22;;;;;;;56.40;30.13;;;5.30;99.90;;;;;;4398121;32;20402;-69
2022/03/16 06:31:49;;;;;;;62.40;31.77;;;5.30;99.90;;;;;;4386391;32;20166;-69
2022/03/16 06:34:16;;;;;;;58.50;30.97;;;5.40;99.90;;;;;;4398207;32;20178;-70
2022/03/16 06:36:43;;;;;;;59.00;30.53;;;5.50;99.90;;;;;;4386305;32;20167;-69
2022/03/16 06:39:10;;;;;;;58.10;30.43;;;5.50;99.90;;;;;;4397118;32;20482;-69
2022/03/16 06:41:37;;;;;;;62.90;31.77;;;5.60;99.90;;;;;;4396932;32;20270;-69
2022/03/16 06:44:04;;;;;;;61.50;29.73;;;5.60;99.90;;;;;;4396751;32;20531;-69
2022/03/16 06:46:31;;;;;;;64.63;31.90;;;5.70;99.90;;;;;;4397030;32;20242;-69
2022/03/16 06:48:58;;;;;;;60.70;31.67;;;5.80;99.90;;;;;;4397571;32;20181;-69
2022/03/16 06:51:25;;;;;;;63.83;32.03;;;5.80;99.90;;;;;;4411024;32;20139;-69
2022/03/16 06:53:52;;;;;;;63.17;32.00;;;5.90;99.90;;;;;;4398155;32;20556;-69
2022/03/16 06:56:19;;;;;;;68.30;33.27;;;6.00;99.90;;;;;;4396835;32;20183;-70
2022/03/16 06:58:46;;;;;;;63.93;33.70;;;6.00;99.90;;;;;;4396640;32;20615;-69
2022/03/16 07:01:13;;;;;;;58.43;31.23;;;6.00;99.90;;;;;;4397264;32;20173;-70
2022/03/16 07:03:40;;;;;;;57.73;30.73;;;6.10;99.90;;;;;;4397976;32;20419;-69
2022/03/16 07:06:08;;;;;;;59.43;32.20;;;6.20;99.90;;;;;;4397104;32;20188;-69
2022/03/16 07:08:35;;;;;;;62.17;31.93;;;6.30;99.90;;;;;;4410803;32;20554;-69
2022/03/16 07:11:02;;;;;;;62.23;32.40;;;6.30;99.90;;;;;;4397041;32;20201;-70
2022/03/16 07:13:29;;;;;;;59.20;32.73;;;6.50;99.90;;;;;;4396905;32;20193;-70
2022/03/16 07:15:56;;;;;;;66.57;32.97;;;6.50;99.90;;;;;;4396512;32;20229;-70
2022/03/16 07:18:23;;;;;;;65.57;32.63;;;6.50;99.90;;;;;;4411116;32;20150;-69
2022/03/16 07:20:51;;;;;;;60.03;31.17;;;6.60;99.90;;;;;;4397420;32;20179;-69
2022/03/16 07:23:18;;;;;;;60.20;32.17;;;6.60;99.90;;;;;;4398585;32;20251;-69
2022/03/16 07:25:47;;;;;;;58.70;31.63;;;6.70;99.90;;;;;;4397331;32;20427;-69
2022/03/16 07:28:15;;;;;;;63.37;32.53;;;6.90;99.90;;;;;;4397035;32;20180;-69
2022/03/16 07:30:42;;;;;;;59.10;31.23;;;6.90;99.90;;;;;;4396859;32;20177;-69
2022/03/16 07:33:12;;;;;;;60.43;32.10;;;7.00;99.90;;;;;;4396433;32;20525;-69
2022/03/16 07:35:40;;;;;;;64.07;32.37;;;7.10;99.90;;;;;;4385203;32;20201;-69
2022/03/16 07:38:08;;;;;;;62.77;31.70;;;7.20;99.90;;;;;;4396167;32;20211;-69
2022/03/16 07:40:36;;;;;;;66.37;32.43;;;7.30;99.90;;;;;;4410016;32;20167;-69
2022/03/16 07:43:05;;;;;;;63.77;32.23;;;7.50;99.90;;;;;;4396608;32;20163;-69
2022/03/16 07:45:32;;;;;;;61.23;32.10;;;7.60;99.90;;;;;;4396678;32;20206;-68
2022/03/16 07:47:59;;;;;;;58.80;31.87;;;7.70;99.90;;;;;;4410090;32;20150;-69
2022/03/16 07:50:26;;;;;;;62.73;32.20;;;7.80;99.90;;;;;;4411129;32;20196;-69
2022/03/16 07:52:54;;;;;;;58.77;31.73;;;7.80;99.90;;;;;;4398054;32;20208;-69
2022/03/16 07:55:21;;;;;;;59.00;31.97;;;8.00;99.90;;;;;;4397430;32;20188;-69
2022/03/16 07:57:49;;;;;;;59.70;31.67;;;8.10;99.90;;;;;;4397527;32;20202;-68
2022/03/16 08:00:17;;;;;;;58.17;31.13;;;8.30;99.90;;;;;;4396990;32;20232;-69
2022/03/16 08:02:44;;;;;;;63.87;33.47;;;8.40;99.90;;;;;;4396815;32;20271;-69
2022/03/16 08:05:13;;;;;;;62.93;33.20;;;8.50;99.90;;;;;;4396863;32;20189;-69
2022/03/16 08:07:40;;;;;;;63.07;33.07;;;8.60;99.90;;;;;;4397610;32;20173;-68
2022/03/16 08:10:08;;;;;;;65.30;33.60;;;8.70;99.90;;;;;;4397810;32;20178;-69
2022/03/16 08:12:35;;;;;;;61.93;33.10;;;8.80;99.90;;;;;;4407053;32;20548;-69
2022/03/16 08:15:02;;;;;;;60.00;32.63;;;8.90;99.90;;;;;;4412301;32;20230;-69
2022/03/16 08:17:29;;;;;;;64.67;32.57;;;9.10;99.90;;;;;;4395485;32;20186;-69
2022/03/16 08:19:57;;;;;;;62.87;32.17;;;9.20;99.90;;;;;;4395425;32;20244;-69
2022/03/16 08:22:33;;;;;;;62.37;33.10;;;9.40;99.90;;;;;;4409501;32;20155;-69
2022/03/16 08:25:03;;;;;;;59.47;32.73;;;9.70;99.90;;;;;;4395455;32;20182;-69
2022/03/16 08:27:30;;;;;;;59.70;31.77;;;10.10;99.90;;;;;;4397200;32;20189;-69
2022/03/16 08:29:57;;;;;;;62.80;31.90;;;10.30;99.90;;;;;;4395974;32;20268;-69
2022/03/16 08:32:24;;;;;;;60.30;32.43;;;10.60;99.90;;;;;;4396245;32;20183;-69
2022/03/16 08:34:51;;;;;;;60.77;33.03;;;10.70;99.90;;;;;;4395419;32;20190;-69
2022/03/16 08:37:19;;;;;;;56.10;31.53;;;10.90;99.90;;;;;;4395548;32;20218;-69
2022/03/16 08:39:47;;;;;;;59.03;31.77;;;11.00;99.90;;;;;;4396830;32;20183;-69
2022/03/16 08:42:16;;;;;;;63.50;32.23;;;11.00;99.90;;;;;;4396582;32;20215;-69
2022/03/16 08:44:45;;;;;;;60.90;32.43;;;11.10;99.90;;;;;;4396917;32;20179;-68
2022/03/16 08:47:16;;;;;;;58.43;31.20;;;10.90;99.90;;;;;;4395495;32;20585;-69
2022/03/16 08:49:50;;;;;;;59.10;32.43;;;10.90;99.90;;;;;;4410429;32;20178;-69
2022/03/16 08:52:17;;;;;;;58.23;32.10;;;11.10;99.90;;;;;;4410227;32;20193;-69
2022/03/16 08:54:44;;;;;;;58.43;33.40;;;11.10;99.90;;;;;;4395272;32;20183;-70
2022/03/16 08:57:11;;;;;;;59.30;31.70;;;11.10;99.90;;;;;;4395095;32;20263;-71
2022/03/16 08:59:39;;;;;;;59.10;31.23;;;11.20;99.90;;;;;;4396945;32;20505;-70
2022/03/16 09:02:06;;;;;;;57.83;32.23;;;11.20;99.90;;;;;;4394966;32;20198;-70
2022/03/16 09:04:34;;;;;;;59.50;32.67;;;11.30;99.90;;;;;;4394970;32;20183;-70
2022/03/16 09:07:02;;;;;;;57.53;32.23;;;11.30;99.90;;;;;;4396544;32;20245;-69
2022/03/16 09:09:30;;;;;;;62.23;31.87;;;11.30;99.90;;;;;;4394841;32;20179;-70
2022/03/16 09:11:57;;;;;;;57.80;32.30;;;11.40;99.90;;;;;;4395221;32;20214;-69
2022/03/16 09:14:24;;;;;;;53.90;31.03;;;11.40;99.90;;;;;;4395320;32;20245;-70
2022/03/16 09:16:52;;;;;;;55.70;30.43;;;11.30;99.90;;;;;;4410058;32;20207;-70
2022/03/16 09:19:21;;;;;;;58.70;32.37;;;11.00;99.90;;;;;;4401549;32;20174;-70
2022/03/16 09:21:49;;;;;;;58.57;32.57;;;11.00;99.90;;;;;;4424312;32;20513;-70
2022/03/16 09:24:17;;;;;;;59.53;32.93;;;10.90;99.90;;;;;;4410101;32;20521;-70
2022/03/16 09:26:45;;;;;;;62.23;33.57;;;11.00;99.90;;;;;;4409943;32;20183;-70
2022/03/16 09:29:13;;;;;;;64.87;33.33;;;11.00;99.90;;;;;;4410918;32;20167;-69
2022/03/16 09:31:42;;;;;;;61.80;32.50;;;11.20;99.90;;;;;;4424934;32;20185;-70
2022/03/16 09:34:10;;;;;;;60.43;32.63;;;11.30;99.90;;;;;;4410648;32;20183;-70
2022/03/16 09:36:38;;;;;;;58.23;31.07;;;11.40;99.90;;;;;;4411328;32;20342;-67
2022/03/16 09:39:05;;;;;;;55.07;31.30;;;11.50;99.90;;;;;;4411386;32;20562;-67
2022/03/16 09:41:32;;;;;;;58.70;31.37;;;11.40;99.90;;;;;;4411240;32;20190;-69
2022/03/16 09:44:04;;;;;;;59.10;31.53;;;11.50;99.90;;;;;;4409652;32;20167;-67
2022/03/16 09:46:33;;;;;;;58.20;32.50;;;11.50;99.90;;;;;;4409729;32;20174;-66
2022/03/16 09:49:00;;;;;;;60.33;32.40;;;11.40;99.90;;;;;;4411514;32;20186;-65
2022/03/16 09:51:31;;;;;;;54.67;31.23;;;11.60;99.90;;;;;;4411671;32;20563;-66
2022/03/16 09:53:59;;;;;;;58.13;31.57;;;11.70;99.90;;;;;;4409132;32;20209;-67
2022/03/16 09:56:26;;;;;;;54.80;31.23;;;11.70;99.90;;;;;;4411001;32;20198;-67
2022/03/16 09:58:52;;;;;;;57.43;31.13;;;11.80;99.90;;;;;;4409523;32;20186;-68
2022/03/16 10:01:20;;;;;;;55.47;30.47;;;12.00;99.90;;;;;;4424592;32;20368;-68
2022/03/16 10:03:48;;;;;;;54.57;29.63;;;12.10;99.90;;;;;;4410842;32;20266;-68
2022/03/16 10:06:22;;;;;;;55.17;30.30;;;12.20;99.90;;;;;;4423337;32;20279;-67
2022/03/16 10:14:19;;;;;;;48.80;27.00;;;12.80;99.90;;;;;;4424800;32;20173;-69
2022/03/16 10:19:52;;;;;;;48.40;26.57;;;13.40;99.90;;;;;;4410775;32;20186;-68
2022/03/16 10:22:28;;;;;;;42.10;24.50;;;13.70;99.90;;;;;;4423223;32;20215;-68
2022/03/16 10:25:14;;;;;;;42.13;24.63;;;13.80;99.90;;;;;;4423104;32;20147;-68
2022/03/16 10:27:41;;;;;;;40.87;23.70;;;14.10;99.90;;;;;;4409650;32;20220;-67
2022/03/16 10:30:08;;;;;;;37.00;22.60;;;14.40;99.90;;;;;;4396233;32;20212;-68
2022/03/16 10:32:40;;;;;;;37.80;23.03;;;14.70;99.10;;;;;;4423968;32;20201;-68
2022/03/16 10:35:08;;;;;;;37.47;22.47;;;14.80;97.10;;;;;;4423914;32;20170;-68
2022/03/16 10:37:37;;;;;;;38.37;22.83;;;15.00;96.00;;;;;;4409208;32;20558;-68
2022/03/16 10:40:20;;;;;;;36.93;22.83;;;15.00;95.80;;;;;;4410012;32;20209;-68
2022/03/16 10:48:20;;;;;;;35.97;21.73;;;15.80;92.70;;;;;;4424845;32;20211;-69
2022/03/16 10:50:49;;;;;;;37.57;21.80;;;16.30;90.60;;;;;;4412916;32;20208;-69
2022/03/16 10:53:18;;;;;;;34.80;21.73;;;16.70;87.60;;;;;;4412975;32;20194;-69
2022/03/16 10:55:46;;;;;;;33.03;21.20;;;16.90;84.20;;;;;;4426665;32;20410;-68
2022/03/16 10:58:15;;;;;;;32.43;20.97;;;16.60;83.90;;;;;;4425301;32;20167;-67
2022/03/16 11:00:42;;;;;;;34.83;20.73;;;16.70;83.00;;;;;;4396612;32;20175;-68
2022/03/16 11:03:17;;;;;;;34.93;20.93;;;16.90;80.90;;;;;;4395108;32;20232;-68
2022/03/16 11:05:45;;;;;;;31.93;19.67;;;17.00;79.60;;;;;;4396908;32;20243;-68
2022/03/16 11:08:12;;;;;;;33.37;19.47;;;17.10;78.70;;;;;;4394523;32;20194;-67
2022/03/16 11:10:41;;;;;;;29.73;19.63;;;17.40;77.80;;;;;;4395340;32;20175;-68
2022/03/16 11:13:29;;;;;;;31.27;18.97;;;17.50;75.50;;;;;;4396356;32;20226;-68
2022/03/16 11:15:57;;;;;;;34.33;19.20;;;17.30;76.00;;;;;;4409647;32;20155;-68
2022/03/16 11:18:25;;;;;;;29.03;19.27;;;17.80;74.10;;;;;;4410854;32;20233;-68
2022/03/16 11:20:56;;;;;;;31.33;19.00;;;18.00;72.50;;;;;;4396290;32;20234;-67
2022/03/16 11:26:45;;;;;;;24.23;16.20;;;18.30;67.90;;;;;;4395152;32;20273;-67
2022/03/16 11:29:27;;;;;;;27.43;17.70;;;18.70;65.70;;;;;;4395364;32;20234;-67
2022/03/16 11:32:09;;;;;;;25.83;16.63;;;19.10;60.50;;;;;;4396800;32;20465;-67
2022/03/16 11:34:36;;;;;;;28.30;16.00;;;19.50;60.70;;;;;;4396752;32;20182;-67
2022/03/16 11:37:08;;;;;;;27.77;17.23;;;19.90;58.90;;;;;;4395112;32;20175;-68
2022/03/16 11:39:47;;;;;;;26.83;17.80;;;20.40;57.50;;;;;;4396057;32;20467;-68
2022/03/16 11:42:18;;;;;;;27.50;17.17;;;21.00;56.00;;;;;;4408973;32;20189;-67
2022/03/16 11:44:45;;;;;;;27.97;17.23;;;21.60;54.90;;;;;;4408750;32;20147;-67
2022/03/16 11:47:16;;;;;;;29.40;18.90;;;22.40;52.50;;;;;;4394668;32;20202;-67
2022/03/16 11:50:04;;;;;;;27.77;17.97;;;22.80;50.60;;;;;;4408686;32;20177;-68
2022/03/16 11:53:00;;;;;;;28.90;18.87;;;22.90;50.70;;;;;;4408713;32;20394;-69
2022/03/16 11:55:50;;;;;;;28.80;18.40;;;22.50;50.20;;;;;;4394132;32;20545;-68
2022/03/16 11:58:32;;;;;;;27.30;18.30;;;22.30;48.40;;;;;;4410647;32;20167;-68
2022/03/16 12:01:31;;;;;;;28.33;17.50;;;22.20;48.40;;;;;;4396850;32;20394;-67
2022/03/16 12:07:02;;;;;;;29.93;18.80;;;21.70;49.20;;;;;;4412025;32;20242;-68
2022/03/16 12:09:52;;;;;;;27.23;18.77;;;21.00;50.00;;;;;;4425475;32;20170;-69
2022/03/16 12:15:12;;;;;;;27.97;18.07;;;20.60;51.00;;;;;;4408161;32;20259;-67
2022/03/16 12:17:52;;;;;;;28.63;19.00;;;20.60;51.00;;;;;;4397119;32;20179;-69
2022/03/16 12:20:22;;;;;;;27.93;18.70;;;20.40;51.10;;;;;;4410079;32;20367;-68
2022/03/16 12:22:57;;;;;;;30.37;18.57;;;20.30;51.30;;;;;;4396128;32;20182;-67
2022/03/16 12:25:27;;;;;;;28.37;18.33;;;20.20;51.00;;;;;;4396648;32;20569;-68
2022/03/16 12:31:00;;;;;;;29.33;18.70;;;19.80;50.70;;;;;;4397387;32;20233;-68
2022/03/16 12:33:30;;;;;;;26.40;18.27;;;19.90;51.00;;;;;;4406120;32;20177;-68
2022/03/16 12:36:05;;;;;;;29.37;18.57;;;19.90;50.70;;;;;;4399954;32;20568;-68
2022/03/16 12:38:34;;;;;;;30.37;18.73;;;20.30;50.20;;;;;;4424329;32;20143;-68
2022/03/16 12:43:50;;;;;;;29.53;18.40;;;20.20;50.40;;;;;;4394911;32;20242;-68
2022/03/16 12:46:33;;;;;;;27.13;17.60;;;20.30;50.20;;;;;;4392453;32;20251;-68
2022/03/16 12:49:11;;;;;;;27.77;17.57;;;20.00;49.70;;;;;;4398315;32;20179;-68
2022/03/16 12:51:44;;;;;;;29.33;17.90;;;20.40;47.70;;;;;;4400118;32;20275;-68
2022/03/16 12:54:13;;;;;;;28.00;17.17;;;20.90;46.40;;;;;;4392102;32;20171;-67
2022/03/16 12:56:42;;;;;;;25.10;17.63;;;21.00;46.40;;;;;;4393748;32;20189;-67
2022/03/16 12:59:10;;;;;;;29.87;17.77;;;21.60;46.40;;;;;;4392221;32;20522;-67
2022/03/16 13:01:39;;;;;;;30.43;18.50;;;22.00;45.60;;;;;;4394086;32;20530;-68
2022/03/16 13:04:07;;;;;;;28.83;18.47;;;22.70;45.00;;;;;;4392931;32;20198;-68
2022/03/16 13:06:35;;;;;;;27.60;17.90;;;23.60;42.50;;;;;;4393685;32;20209;-67
2022/03/16 13:09:04;;;;;;;31.20;19.17;;;23.80;40.40;;;;;;4392378;32;20459;-67
2022/03/16 13:11:32;;;;;;;27.67;19.20;;;24.20;39.80;;;;;;4393280;32;20174;-68